createdAt,value
2023-02-12T00:01:10.966Z,11.90
2023-02-12T00:03:42.046Z,11.47
2023-02-12T00:06:13.521Z,10.20
2023-02-12T00:08:43.077Z,8.60
2023-02-12T00:11:13.964Z,12.43
2023-02-12T00:13:43.967Z,9.67
2023-02-12T00:16:14.790Z,9.43
2023-02-12T00:18:45.103Z,10.43
2023-02-12T00:21:14.215Z,9.90
2023-02-12T00:23:42.544Z,12.17
2023-02-12T00:26:12.515Z,11.57
2023-02-12T00:28:46.801Z,9.83
2023-02-12T00:31:17.623Z,10.33
2023-02-12T00:33:47.508Z,10.40
2023-02-12T00:36:17.563Z,10.43
2023-02-12T00:38:46.800Z,13.07
2023-02-12T00:41:15.443Z,12.00
2023-02-12T00:43:43.838Z,11.50
2023-02-12T00:46:12.922Z,11.13
2023-02-12T00:48:41.360Z,11.23
2023-02-12T00:51:11.050Z,14.63
2023-02-12T00:53:39.403Z,13.27
2023-02-12T00:56:08.877Z,12.17
2023-02-12T00:58:37.393Z,14.37
2023-02-12T01:01:08.262Z,13.33
2023-02-12T01:03:38.572Z,15.77
2023-02-12T01:06:07.225Z,13.00
2023-02-12T01:08:37.029Z,13.93
2023-02-12T01:11:06.870Z,14.80
2023-02-12T01:13:36.464Z,14.30
2023-02-12T01:16:09.232Z,14.23
2023-02-12T01:18:39.176Z,18.77
2023-02-12T01:21:14.874Z,16.47
2023-02-12T01:23:45.592Z,16.90
2023-02-12T01:26:15.043Z,13.57
2023-02-12T01:28:45.080Z,17.50
2023-02-12T01:31:15.723Z,18.27
2023-02-12T01:33:44.707Z,13.53
2023-02-12T01:36:12.989Z,16.03
2023-02-12T01:38:41.498Z,14.87
2023-02-12T01:41:13.460Z,12.20
2023-02-12T01:43:41.782Z,14.00
2023-02-12T01:46:14.141Z,16.40
2023-02-12T01:48:45.534Z,12.13
2023-02-12T01:51:17.540Z,13.97
2023-02-12T01:53:51.415Z,14.50
2023-02-12T01:56:21.611Z,13.47
2023-02-12T01:58:52.947Z,13.30
2023-02-12T02:01:25.779Z,12.87
2023-02-12T02:03:57.146Z,12.90
2023-02-12T02:06:29.147Z,13.73
2023-02-12T02:08:58.824Z,12.80
2023-02-12T02:11:45.948Z,12.90
2023-02-12T02:14:31.608Z,14.23
2023-02-12T02:17:30.949Z,15.90
2023-02-12T02:20:31.736Z,13.97
2023-02-12T02:23:18.265Z,11.90
2023-02-12T02:26:23.153Z,10.10
2023-02-12T02:29:06.113Z,9.10
2023-02-12T02:31:41.840Z,12.07
2023-02-12T02:34:18.182Z,11.37
2023-02-12T02:37:00.264Z,11.20
2023-02-12T02:39:38.706Z,12.83
2023-02-12T02:42:11.522Z,8.70
2023-02-12T02:44:45.056Z,11.33
2023-02-12T02:47:17.263Z,12.07
2023-02-12T02:49:51.245Z,10.73
2023-02-12T02:52:25.560Z,11.63
2023-02-12T02:54:57.409Z,11.43
2023-02-12T02:57:29.715Z,10.37
2023-02-12T03:00:04.273Z,11.60
2023-02-12T03:02:38.081Z,13.10
2023-02-12T03:05:11.988Z,12.53
2023-02-12T03:07:46.548Z,11.43
2023-02-12T03:10:18.400Z,11.70
2023-02-12T03:12:53.159Z,11.00
2023-02-12T03:15:25.688Z,11.70
2023-02-12T03:17:56.300Z,11.57
2023-02-12T03:20:29.415Z,10.90
2023-02-12T03:23:02.153Z,10.43
2023-02-12T03:25:36.265Z,9.70
2023-02-12T03:28:10.293Z,11.67
2023-02-12T03:30:45.664Z,9.93
2023-02-12T03:33:26.413Z,9.07
2023-02-12T03:36:02.479Z,10.50
2023-02-12T03:38:38.226Z,11.87
2023-02-12T03:41:10.788Z,10.03
2023-02-12T03:43:50.412Z,9.33
2023-02-12T03:46:23.780Z,11.03
2023-02-12T03:49:02.113Z,12.30
2023-02-12T03:51:35.896Z,14.37
2023-02-12T03:54:05.406Z,10.40
2023-02-12T03:56:39.091Z,9.63
2023-02-12T03:59:07.653Z,7.97
2023-02-12T04:01:36.894Z,10.30
2023-02-12T04:04:08.264Z,14.47
2023-02-12T04:06:37.135Z,13.97
2023-02-12T04:09:07.649Z,10.33
2023-02-12T04:11:48.747Z,11.80
2023-02-12T04:14:25.851Z,12.67
2023-02-12T04:17:04.533Z,9.63
2023-02-12T04:19:44.406Z,10.63
2023-02-12T04:22:25.925Z,10.53
2023-02-12T04:25:03.100Z,11.03
2023-02-12T04:27:38.434Z,9.83
2023-02-12T04:30:15.744Z,13.03
2023-02-12T04:32:48.417Z,12.87
2023-02-12T04:35:24.195Z,10.77
2023-02-12T04:37:58.536Z,9.20
2023-02-12T04:40:27.780Z,8.90
2023-02-12T04:42:56.156Z,11.70
2023-02-12T04:45:27.242Z,11.47
2023-02-12T04:47:55.515Z,12.13
2023-02-12T04:50:25.342Z,12.80
2023-02-12T04:52:53.601Z,9.60
2023-02-12T04:55:21.821Z,11.97
2023-02-12T04:57:50.045Z,12.67
2023-02-12T05:00:19.142Z,10.93
2023-02-12T05:02:47.385Z,12.33
2023-02-12T05:05:15.874Z,11.57
2023-02-12T05:07:45.511Z,12.77
2023-02-12T05:10:14.376Z,12.23
2023-02-12T05:12:42.589Z,13.87
2023-02-12T05:15:11.362Z,9.97
2023-02-12T05:17:39.652Z,10.63
2023-02-12T05:20:09.022Z,11.33
2023-02-12T05:22:37.384Z,12.00
2023-02-12T05:25:07.638Z,16.30
2023-02-12T05:27:35.857Z,15.47
2023-02-12T05:30:05.505Z,12.93
2023-02-12T05:32:33.760Z,15.43
2023-02-12T05:35:02.257Z,15.67
2023-02-12T05:37:31.573Z,16.63
2023-02-12T05:39:59.855Z,17.13
2023-02-12T05:42:30.653Z,15.43
2023-02-12T05:44:58.914Z,14.33
2023-02-12T05:47:27.127Z,15.00
2023-02-12T05:49:55.338Z,17.90
2023-02-12T05:52:23.611Z,15.20
2023-02-12T05:54:51.988Z,19.00
2023-02-12T05:57:20.348Z,14.97
2023-02-12T05:59:49.919Z,15.67
2023-02-12T06:02:18.151Z,14.67
2023-02-12T06:04:48.518Z,14.33
2023-02-12T06:07:16.949Z,16.97
2023-02-12T06:09:45.436Z,16.43
2023-02-12T06:12:13.685Z,16.07
2023-02-12T06:14:42.529Z,17.90
2023-02-12T06:17:12.112Z,19.07
2023-02-12T06:19:40.372Z,16.07
2023-02-12T06:22:08.596Z,15.43
2023-02-12T06:24:37.268Z,17.70
2023-02-12T06:27:05.564Z,15.17
2023-02-12T06:29:33.792Z,17.73
2023-02-12T06:32:02.145Z,17.83
2023-02-12T06:34:31.946Z,17.70
2023-02-12T06:37:00.174Z,17.03
2023-02-12T06:39:28.397Z,19.67
2023-02-12T06:41:56.710Z,19.03
2023-02-12T06:44:24.939Z,19.50
2023-02-12T06:46:53.621Z,19.17
2023-02-12T06:49:21.927Z,19.50
2023-02-12T06:51:51.556Z,21.17
2023-02-12T06:54:20.136Z,22.80
2023-02-12T06:56:48.372Z,20.23
2023-02-12T06:59:18.237Z,21.13
2023-02-12T07:01:46.565Z,22.63
2023-02-12T07:04:15.051Z,22.33
2023-02-12T07:06:43.351Z,25.50
2023-02-12T07:09:13.040Z,21.57
2023-02-12T07:11:41.290Z,24.70
2023-02-12T07:14:14.252Z,23.97
2023-02-12T07:16:42.665Z,24.33
2023-02-12T07:19:14.531Z,21.77
2023-02-12T07:21:42.842Z,23.50
2023-02-12T07:24:13.832Z,21.60
2023-02-12T07:26:42.736Z,23.63
2023-02-12T07:29:11.448Z,23.83
2023-02-12T07:31:40.174Z,25.07
2023-02-12T07:34:08.513Z,22.73
2023-02-12T07:36:36.871Z,26.17
2023-02-12T07:39:06.286Z,24.10
2023-02-12T07:41:37.439Z,23.50
2023-02-12T07:44:07.845Z,24.83
2023-02-12T07:46:37.732Z,26.13
2023-02-12T07:49:07.653Z,24.63
2023-02-12T07:51:36.764Z,21.73
2023-02-12T07:54:06.003Z,21.90
2023-02-12T07:56:37.813Z,25.37
2023-02-12T07:59:08.622Z,27.27
2023-02-12T08:01:38.999Z,26.93
2023-02-12T08:04:10.540Z,25.93
2023-02-12T08:06:41.667Z,27.13
2023-02-12T08:09:12.900Z,29.93
2023-02-12T08:11:43.976Z,27.30
2023-02-12T08:14:13.654Z,26.00
2023-02-12T08:16:43.486Z,26.10
2023-02-12T08:19:23.988Z,29.63
2023-02-12T08:21:55.992Z,31.47
2023-02-12T08:24:24.575Z,35.37
2023-02-12T08:26:54.256Z,31.80
2023-02-12T08:29:24.824Z,36.33
2023-02-12T08:31:58.100Z,36.50
2023-02-12T08:34:27.839Z,36.30
2023-02-12T08:36:57.313Z,33.97
2023-02-12T08:39:27.398Z,39.73
2023-02-12T08:41:58.347Z,39.53
2023-02-12T08:44:27.109Z,37.27
2023-02-12T08:46:56.673Z,37.17
2023-02-12T08:49:27.167Z,37.87
2023-02-12T08:51:57.510Z,35.73
2023-02-12T08:54:27.933Z,41.97
2023-02-12T08:56:58.910Z,37.13
2023-02-12T08:59:27.761Z,38.87
2023-02-12T09:01:56.123Z,44.30
2023-02-12T09:04:26.779Z,43.13
2023-02-12T09:06:55.943Z,42.43
2023-02-12T09:09:24.368Z,39.33
2023-02-12T09:11:52.719Z,42.43
2023-02-12T09:14:25.024Z,46.33
2023-02-12T09:16:53.983Z,38.90
2023-02-12T09:19:22.355Z,38.90
2023-02-12T09:21:55.172Z,41.07
2023-02-12T09:24:24.302Z,37.43
2023-02-12T09:26:52.549Z,35.70
2023-02-12T09:29:22.176Z,26.80
2023-02-12T09:31:50.608Z,21.37
2023-02-12T09:34:18.917Z,19.30
2023-02-12T09:36:47.151Z,23.77
2023-02-12T09:39:15.424Z,22.87
2023-02-12T09:42:08.597Z,20.17
2023-02-12T09:44:45.742Z,22.30
2023-02-12T09:47:19.701Z,22.43
2023-02-12T09:50:07.004Z,20.90
2023-02-12T09:52:36.275Z,20.93
2023-02-12T09:55:05.128Z,22.60
2023-02-12T09:57:36.304Z,23.60
2023-02-12T10:00:09.287Z,23.47
2023-02-12T10:02:39.092Z,27.77
2023-02-12T10:05:15.722Z,27.57
2023-02-12T10:08:02.379Z,24.47
2023-02-12T10:10:44.761Z,24.13
2023-02-12T10:13:26.110Z,19.77
2023-02-12T10:15:59.492Z,20.70
2023-02-12T10:18:46.316Z,14.47
2023-02-12T10:21:30.013Z,17.13
2023-02-12T10:24:08.505Z,23.27
2023-02-12T10:26:40.612Z,19.07
2023-02-12T10:29:15.100Z,18.80
2023-02-12T10:31:48.527Z,18.73
2023-02-12T10:34:21.215Z,26.87
2023-02-12T10:36:52.738Z,20.50
2023-02-12T10:39:24.424Z,17.73
2023-02-12T10:41:59.785Z,15.47
2023-02-12T10:44:28.392Z,16.83
2023-02-12T10:46:58.119Z,17.73
2023-02-12T10:49:26.469Z,16.87
2023-02-12T10:52:12.746Z,16.40
2023-02-12T10:54:43.390Z,14.60
2023-02-12T10:57:19.253Z,15.83
2023-02-12T10:59:48.996Z,15.27
2023-02-12T11:02:27.130Z,13.43
2023-02-12T11:04:56.951Z,15.07
2023-02-12T11:07:26.537Z,13.00
2023-02-12T11:09:57.078Z,13.80
2023-02-12T11:12:33.633Z,14.93
2023-02-12T11:15:04.204Z,14.67
2023-02-12T11:17:36.994Z,14.07
2023-02-12T11:20:26.938Z,16.40
2023-02-12T11:22:58.117Z,13.97
2023-02-12T11:25:29.309Z,15.30
2023-02-12T11:28:03.463Z,13.97
2023-02-12T11:30:32.355Z,17.10
2023-02-12T11:33:26.058Z,13.93
2023-02-12T11:35:56.642Z,18.67
2023-02-12T11:38:31.770Z,20.10
2023-02-12T11:41:04.772Z,15.97
2023-02-12T11:43:37.325Z,17.03
2023-02-12T11:46:08.536Z,18.40
2023-02-12T11:48:40.721Z,19.77
2023-02-12T11:51:21.001Z,21.00
2023-02-12T11:53:52.295Z,20.27
2023-02-12T11:56:21.804Z,18.63
2023-02-12T11:58:51.540Z,17.73
2023-02-12T12:01:23.051Z,18.27
2023-02-12T12:03:59.963Z,15.90
2023-02-12T12:06:34.276Z,18.27
2023-02-12T12:09:08.426Z,19.93
2023-02-12T12:11:45.284Z,17.90
2023-02-12T12:14:22.321Z,19.33
2023-02-12T12:17:10.854Z,17.17
2023-02-12T12:19:54.937Z,19.00
2023-02-12T12:22:41.763Z,16.77
2023-02-12T12:25:18.653Z,18.47
2023-02-12T12:28:03.985Z,16.67
2023-02-12T12:30:53.743Z,20.00
2023-02-12T12:33:31.855Z,18.30
2023-02-12T12:36:33.104Z,19.30
2023-02-12T12:39:11.270Z,20.93
2023-02-12T12:41:49.986Z,17.13
2023-02-12T12:44:33.420Z,17.57
2023-02-12T12:47:11.765Z,20.50
2023-02-12T12:49:54.817Z,17.43
2023-02-12T12:52:47.241Z,19.37
2023-02-12T12:55:35.923Z,30.67
2023-02-12T12:58:12.917Z,21.13
2023-02-12T13:01:06.829Z,19.80
2023-02-12T13:04:14.728Z,18.40
2023-02-12T13:06:57.503Z,19.60
2023-02-12T13:09:39.189Z,21.37
2023-02-12T13:12:25.139Z,21.77
2023-02-12T13:15:00.477Z,23.83
2023-02-12T13:17:36.900Z,20.77
2023-02-12T13:20:13.260Z,19.87
2023-02-12T13:22:47.657Z,25.80
2023-02-12T13:25:25.719Z,24.23
2023-02-12T13:27:58.540Z,23.93
2023-02-12T13:30:31.531Z,20.10
2023-02-12T13:33:08.215Z,20.40
2023-02-12T13:35:42.432Z,22.13
2023-02-12T13:38:18.443Z,23.73
2023-02-12T13:40:49.664Z,23.97
2023-02-12T13:43:34.547Z,22.17
2023-02-12T13:46:09.216Z,24.30
2023-02-12T15:20:52.468Z,27.87
2023-02-12T15:23:33.517Z,25.57
2023-02-12T15:26:02.794Z,24.53
2023-02-12T15:28:35.423Z,24.23
2023-02-12T15:31:05.023Z,23.33
2023-02-12T15:33:35.876Z,23.13
2023-02-12T16:22:41.164Z,28.10
2023-02-12T16:25:17.576Z,27.63
2023-02-12T16:27:55.610Z,27.70
2023-02-12T16:30:27.789Z,30.63
2023-02-12T16:32:56.570Z,29.73
2023-02-12T16:35:29.557Z,28.63
2023-02-12T16:38:24.603Z,30.90
2023-02-12T16:41:20.844Z,36.07
2023-02-12T16:43:50.936Z,50.67
2023-02-12T16:46:22.552Z,36.07
2023-02-12T16:48:53.225Z,32.00
2023-02-12T16:51:25.488Z,42.90
2023-02-12T16:53:57.641Z,33.70
2023-02-12T16:56:28.071Z,40.23
2023-02-12T16:58:59.648Z,34.37
2023-02-12T17:01:29.839Z,33.60
2023-02-12T17:04:01.086Z,31.10
2023-02-12T17:06:31.233Z,29.27
2023-02-12T17:09:01.042Z,29.47
2023-02-12T17:11:29.969Z,31.50
2023-02-12T17:13:58.315Z,31.13
2023-02-12T17:16:31.595Z,35.00
2023-02-12T17:19:00.730Z,38.10
2023-02-12T17:21:31.740Z,33.70
2023-02-12T17:24:01.439Z,38.17
2023-02-12T17:26:29.851Z,35.40
2023-02-12T17:29:05.464Z,33.03
2023-02-12T17:31:34.121Z,37.33
2023-02-12T17:34:02.480Z,41.10
2023-02-12T17:36:30.804Z,38.13
2023-02-12T17:38:59.118Z,40.83
2023-02-12T17:41:28.830Z,38.77
2023-02-12T17:43:57.109Z,35.33
2023-02-12T17:46:27.567Z,39.20
2023-02-12T17:48:56.541Z,45.43
2023-02-12T17:51:25.465Z,37.17
2023-02-12T17:53:53.964Z,42.40
2023-02-12T17:56:25.566Z,42.70
2023-02-12T17:58:55.353Z,37.30
2023-02-12T18:01:25.301Z,41.57
2023-02-12T18:03:55.903Z,40.83
2023-02-12T18:06:26.598Z,40.63
2023-02-12T18:08:55.400Z,44.43
2023-02-12T18:11:23.692Z,43.90
2023-02-12T18:13:53.829Z,42.83
2023-02-12T18:16:24.752Z,46.27
2023-02-12T18:18:53.210Z,48.53
2023-02-12T18:21:21.677Z,46.73
2023-02-12T18:23:50.433Z,46.87
2023-02-12T18:26:19.957Z,49.70
2023-02-12T18:28:48.782Z,48.07
2023-02-12T18:31:19.411Z,46.57
2023-02-12T18:33:49.083Z,49.77
2023-02-12T18:36:18.902Z,48.70
2023-02-12T18:38:49.311Z,48.17
2023-02-12T18:41:19.775Z,43.30
2023-02-12T18:43:48.580Z,48.17
2023-02-12T18:46:19.953Z,51.90
2023-02-12T18:48:50.538Z,56.73
2023-02-12T18:51:22.382Z,50.73
2023-02-12T18:53:55.562Z,48.13
2023-02-12T18:56:24.190Z,54.37
2023-02-12T18:58:56.595Z,55.73
2023-02-12T19:01:25.972Z,51.43
2023-02-12T19:03:57.431Z,59.10
2023-02-12T19:06:26.001Z,55.47
2023-02-12T19:08:56.734Z,54.83
2023-02-12T19:11:25.521Z,48.33
2023-02-12T19:13:53.943Z,46.63
2023-02-12T19:16:24.499Z,50.20
2023-02-12T19:18:56.039Z,46.03
2023-02-12T19:21:26.450Z,51.67
2023-02-12T19:23:56.153Z,61.80
2023-02-12T19:26:25.221Z,64.27
2023-02-12T19:28:54.037Z,51.90
2023-02-12T19:31:24.667Z,48.23
2023-02-12T19:33:59.100Z,47.90
2023-02-12T19:36:29.097Z,51.87
2023-02-12T19:38:57.625Z,56.50
2023-02-12T19:41:27.695Z,53.17
2023-02-12T19:43:58.250Z,48.73
2023-02-12T19:46:28.322Z,48.53
2023-02-12T19:49:00.312Z,48.50
2023-02-12T19:51:30.575Z,57.47
2023-02-12T19:54:01.279Z,53.27
2023-02-12T19:56:29.916Z,57.10
2023-02-12T19:58:58.519Z,45.73
2023-02-12T20:01:27.294Z,52.77
2023-02-12T20:03:58.370Z,45.30
2023-02-12T20:06:28.978Z,53.83
2023-02-12T20:08:57.651Z,57.43
2023-02-12T20:11:28.818Z,48.50
2023-02-12T20:13:58.020Z,50.47
2023-02-12T20:16:31.249Z,44.23
2023-02-12T20:19:04.988Z,50.83
2023-02-12T20:21:33.421Z,41.20
2023-02-12T20:24:02.365Z,43.40
2023-02-12T20:26:32.592Z,43.87
2023-02-12T20:29:03.373Z,43.20
2023-02-12T20:31:36.040Z,52.53
2023-02-12T20:34:08.015Z,44.97
2023-02-12T20:36:38.130Z,45.77
2023-02-12T20:39:07.869Z,44.83
2023-02-12T20:41:37.208Z,42.87
2023-02-12T20:44:06.303Z,45.13
2023-02-12T20:46:39.280Z,40.30
2023-02-12T20:49:09.337Z,43.77
2023-02-12T20:51:38.273Z,43.20
2023-02-12T20:54:06.785Z,44.73
2023-02-12T20:56:37.118Z,46.30
2023-02-12T20:59:06.471Z,42.93
2023-02-12T21:01:36.976Z,43.57
2023-02-12T21:04:07.358Z,45.47
2023-02-12T21:06:40.118Z,47.00
2023-02-12T21:09:09.654Z,47.10
2023-02-12T21:11:39.787Z,97.30
2023-02-12T21:14:21.297Z,102.13
2023-02-12T21:16:50.668Z,84.87
2023-02-12T21:19:19.410Z,58.13
2023-02-12T21:21:49.075Z,48.27
2023-02-12T21:24:19.648Z,55.60
2023-02-12T21:26:48.168Z,44.30
2023-02-12T21:29:16.815Z,43.60
2023-02-12T21:31:46.986Z,46.30
2023-02-12T21:34:17.326Z,50.13
2023-02-12T21:36:46.932Z,45.77
2023-02-12T21:39:24.340Z,47.70
2023-02-12T21:41:54.436Z,50.37
2023-02-12T21:44:23.872Z,44.73
2023-02-12T21:46:52.676Z,50.17
2023-02-12T21:49:26.535Z,48.77
2023-02-12T21:51:56.835Z,45.40
2023-02-12T21:54:27.071Z,49.20
2023-02-12T21:56:55.706Z,48.70
2023-02-12T21:59:24.813Z,45.73
2023-02-12T22:01:55.314Z,51.20
2023-02-12T22:04:23.653Z,51.73
2023-02-12T22:06:52.830Z,51.27
2023-02-12T22:09:22.900Z,108.53
2023-02-12T22:11:53.154Z,111.30
2023-02-12T22:14:22.531Z,81.77
2023-02-12T22:16:51.023Z,64.40
2023-02-12T22:19:19.484Z,50.87
2023-02-12T22:21:51.336Z,47.63
2023-02-12T22:24:19.794Z,50.10
2023-02-12T22:26:48.121Z,47.30
2023-02-12T22:29:18.316Z,48.37
2023-02-12T22:31:47.903Z,46.97
2023-02-12T22:34:18.657Z,48.13
2023-02-12T22:36:48.023Z,48.87
2023-02-12T22:39:17.613Z,47.70
2023-02-12T22:41:46.293Z,51.07
2023-02-12T22:44:15.635Z,47.73
2023-02-12T22:46:46.060Z,50.83
2023-02-12T22:49:14.308Z,52.90
2023-02-12T22:51:42.850Z,55.40
2023-02-12T22:54:14.034Z,46.03
2023-02-12T22:56:42.352Z,48.33
2023-02-12T22:59:11.949Z,51.60
2023-02-12T23:01:40.436Z,50.27
2023-02-12T23:04:15.108Z,47.07
2023-02-12T23:06:43.856Z,53.27
2023-02-12T23:09:14.318Z,48.10
2023-02-12T23:11:42.697Z,46.43
2023-02-12T23:14:10.938Z,48.67
2023-02-12T23:16:39.933Z,55.07
2023-02-12T23:19:11.625Z,52.97
2023-02-12T23:21:40.576Z,56.77
2023-02-12T23:24:11.457Z,54.80
2023-02-12T23:26:39.808Z,59.07
2023-02-12T23:29:08.160Z,47.43
2023-02-12T23:31:36.497Z,50.93
2023-02-12T23:34:04.867Z,57.70
2023-02-12T23:36:34.431Z,56.53
2023-02-12T23:39:05.716Z,57.90
2023-02-12T23:41:33.996Z,59.60
2023-02-12T23:44:02.222Z,55.87
2023-02-12T23:46:30.526Z,58.47
2023-02-12T23:48:58.758Z,54.93
2023-02-12T23:51:27.111Z,51.30
2023-02-12T23:53:56.733Z,56.30
2023-02-12T23:56:25.211Z,53.03
2023-02-12T23:58:53.429Z,56.57
